sensor_id;sensor_type;location;lat;lon;timestamp;P1;durP1;ratioP1;P2;durP2;ratioP2
50012;SDS011;35901;48.694;9.476;2023-11-22T00:00:43;22.37;;;16.23;;
50012;SDS011;35901;48.694;9.476;2023-11-22T00:03:09;21.23;;;16.00;;
50012;SDS011;35901;48.694;9.476;2023-11-22T00:05:34;23.80;;;16.80;;
50012;SDS011;35901;48.694;9.476;2023-11-22T00:08:01;24.07;;;16.63;;
50012;SDS011;35901;48.694;9.476;2023-11-22T00:10:26;22.50;;;15.10;;
50012;SDS011;35901;48.694;9.476;2023-11-22T00:12:52;19.57;;;14.60;;
50012;SDS011;35901;48.694;9.476;2023-11-22T00:15:18;28.20;;;17.57;;
50012;SDS011;35901;48.694;9.476;2023-11-22T00:17:44;24.03;;;16.07;;
50012;SDS011;35901;48.694;9.476;2023-11-22T00:20:10;26.77;;;16.47;;
50012;SDS011;35901;48.694;9.476;2023-11-22T00:22:36;19.60;;;14.97;;
50012;SDS011;35901;48.694;9.476;2023-11-22T00:25:02;18.33;;;14.50;;
50012;SDS011;35901;48.694;9.476;2023-11-22T00:27:30;16.83;;;12.10;;
50012;SDS011;35901;48.694;9.476;2023-11-22T00:29:59;16.50;;;11.33;;
50012;SDS011;35901;48.694;9.476;2023-11-22T00:32:24;10.80;;;8.37;;
50012;SDS011;35901;48.694;9.476;2023-11-22T00:34:53;8.73;;;6.63;;
50012;SDS011;35901;48.694;9.476;2023-11-22T00:37:18;6.13;;;5.00;;
50012;SDS011;35901;48.694;9.476;2023-11-22T00:39:44;5.20;;;4.70;;
50012;SDS011;35901;48.694;9.476;2023-11-22T00:42:10;5.70;;;5.20;;
50012;SDS011;35901;48.694;9.476;2023-11-22T00:44:37;4.90;;;4.40;;
50012;SDS011;35901;48.694;9.476;2023-11-22T00:47:03;5.57;;;4.40;;
50012;SDS011;35901;48.694;9.476;2023-11-22T00:49:28;4.40;;;4.00;;
50012;SDS011;35901;48.694;9.476;2023-11-22T00:51:54;4.97;;;4.20;;
50012;SDS011;35901;48.694;9.476;2023-11-22T00:54:20;5.20;;;4.70;;
50012;SDS011;35901;48.694;9.476;2023-11-22T00:56:46;4.60;;;4.20;;
50012;SDS011;35901;48.694;9.476;2023-11-22T00:59:12;4.40;;;4.00;;
50012;SDS011;35901;48.694;9.476;2023-11-22T01:01:39;6.07;;;4.20;;
50012;SDS011;35901;48.694;9.476;2023-11-22T01:04:05;4.83;;;4.10;;
50012;SDS011;35901;48.694;9.476;2023-11-22T01:06:33;4.77;;;4.37;;
50012;SDS011;35901;48.694;9.476;2023-11-22T01:08:59;6.07;;;5.53;;
50012;SDS011;35901;48.694;9.476;2023-11-22T01:11:25;6.13;;;5.53;;
50012;SDS011;35901;48.694;9.476;2023-11-22T01:13:51;5.73;;;5.23;;
50012;SDS011;35901;48.694;9.476;2023-11-22T01:16:17;6.13;;;5.40;;
50012;SDS011;35901;48.694;9.476;2023-11-22T01:18:42;6.40;;;5.60;;
50012;SDS011;35901;48.694;9.476;2023-11-22T01:21:11;6.13;;;5.63;;
50012;SDS011;35901;48.694;9.476;2023-11-22T01:23:37;5.30;;;4.70;;
50012;SDS011;35901;48.694;9.476;2023-11-22T01:26:03;6.00;;;5.47;;
50012;SDS011;35901;48.694;9.476;2023-11-22T01:28:29;6.00;;;5.40;;
50012;SDS011;35901;48.694;9.476;2023-11-22T01:30:59;6.47;;;5.87;;
50012;SDS011;35901;48.694;9.476;2023-11-22T01:33:27;7.20;;;6.50;;
50012;SDS011;35901;48.694;9.476;2023-11-22T01:35:52;6.63;;;6.00;;
50012;SDS011;35901;48.694;9.476;2023-11-22T01:38:18;7.37;;;6.67;;
50012;SDS011;35901;48.694;9.476;2023-11-22T01:40:44;6.80;;;6.20;;
50012;SDS011;35901;48.694;9.476;2023-11-22T01:43:14;7.57;;;6.77;;
50012;SDS011;35901;48.694;9.476;2023-11-22T01:45:41;6.77;;;6.00;;
50012;SDS011;35901;48.694;9.476;2023-11-22T01:48:07;7.30;;;6.60;;
50012;SDS011;35901;48.694;9.476;2023-11-22T01:50:36;6.70;;;6.00;;
50012;SDS011;35901;48.694;9.476;2023-11-22T01:53:03;8.10;;;6.60;;
50012;SDS011;35901;48.694;9.476;2023-11-22T01:55:29;6.47;;;5.70;;
50012;SDS011;35901;48.694;9.476;2023-11-22T01:57:56;7.60;;;6.80;;
50012;SDS011;35901;48.694;9.476;2023-11-22T02:00:22;6.83;;;6.13;;
50012;SDS011;35901;48.694;9.476;2023-11-22T02:02:50;6.57;;;5.97;;
50012;SDS011;35901;48.694;9.476;2023-11-22T02:05:16;6.93;;;6.23;;
50012;SDS011;35901;48.694;9.476;2023-11-22T02:07:43;7.37;;;6.60;;
50012;SDS011;35901;48.694;9.476;2023-11-22T02:10:09;8.67;;;6.93;;
50012;SDS011;35901;48.694;9.476;2023-11-22T02:12:35;7.03;;;6.27;;
50012;SDS011;35901;48.694;9.476;2023-11-22T02:15:01;7.00;;;6.03;;
50012;SDS011;35901;48.694;9.476;2023-11-22T02:17:29;6.87;;;6.10;;
50012;SDS011;35901;48.694;9.476;2023-11-22T02:19:55;6.97;;;6.27;;
50012;SDS011;35901;48.694;9.476;2023-11-22T02:22:20;7.57;;;6.77;;
50012;SDS011;35901;48.694;9.476;2023-11-22T02:24:46;7.00;;;6.20;;
50012;SDS011;35901;48.694;9.476;2023-11-22T02:27:12;6.77;;;5.90;;
50012;SDS011;35901;48.694;9.476;2023-11-22T02:29:38;8.00;;;6.27;;
50012;SDS011;35901;48.694;9.476;2023-11-22T02:32:05;6.10;;;5.50;;
50012;SDS011;35901;48.694;9.476;2023-11-22T02:34:31;5.73;;;5.13;;
50012;SDS011;35901;48.694;9.476;2023-11-22T02:36:56;5.83;;;5.23;;
50012;SDS011;35901;48.694;9.476;2023-11-22T02:39:24;5.53;;;4.97;;
50012;SDS011;35901;48.694;9.476;2023-11-22T02:41:56;6.37;;;5.07;;
50012;SDS011;35901;48.694;9.476;2023-11-22T02:44:23;5.87;;;5.30;;
50012;SDS011;35901;48.694;9.476;2023-11-22T02:46:48;6.00;;;5.40;;
50012;SDS011;35901;48.694;9.476;2023-11-22T02:49:14;5.03;;;4.60;;
50012;SDS011;35901;48.694;9.476;2023-11-22T02:51:40;6.37;;;5.77;;
50012;SDS011;35901;48.694;9.476;2023-11-22T02:54:06;8.10;;;5.40;;
50012;SDS011;35901;48.694;9.476;2023-11-22T02:56:31;5.83;;;5.23;;
50012;SDS011;35901;48.694;9.476;2023-11-22T02:58:57;6.47;;;5.77;;
50012;SDS011;35901;48.694;9.476;2023-11-22T03:01:23;6.20;;;5.60;;
50012;SDS011;35901;48.694;9.476;2023-11-22T03:03:48;7.23;;;6.53;;
50012;SDS011;35901;48.694;9.476;2023-11-22T03:06:14;7.07;;;5.80;;
50012;SDS011;35901;48.694;9.476;2023-11-22T03:08:40;6.70;;;6.10;;
50012;SDS011;35901;48.694;9.476;2023-11-22T03:11:05;7.10;;;6.40;;
50012;SDS011;35901;48.694;9.476;2023-11-22T03:13:31;8.10;;;6.80;;
50012;SDS011;35901;48.694;9.476;2023-11-22T03:15:58;7.57;;;6.80;;
50012;SDS011;35901;48.694;9.476;2023-11-22T03:18:24;7.43;;;6.73;;
50012;SDS011;35901;48.694;9.476;2023-11-22T03:20:51;8.03;;;7.23;;
50012;SDS011;35901;48.694;9.476;2023-11-22T03:23:19;7.37;;;6.67;;
50012;SDS011;35901;48.694;9.476;2023-11-22T03:25:45;8.07;;;7.27;;
50012;SDS011;35901;48.694;9.476;2023-11-22T03:28:12;8.73;;;7.27;;
50012;SDS011;35901;48.694;9.476;2023-11-22T03:30:39;7.83;;;7.00;;
50012;SDS011;35901;48.694;9.476;2023-11-22T03:33:05;7.50;;;6.40;;
50012;SDS011;35901;48.694;9.476;2023-11-22T03:35:31;8.37;;;6.20;;
50012;SDS011;35901;48.694;9.476;2023-11-22T03:37:56;6.70;;;6.00;;
50012;SDS011;35901;48.694;9.476;2023-11-22T03:40:22;7.03;;;6.30;;
50012;SDS011;35901;48.694;9.476;2023-11-22T03:42:48;7.63;;;6.07;;
50012;SDS011;35901;48.694;9.476;2023-11-22T03:45:14;8.10;;;6.43;;
50012;SDS011;35901;48.694;9.476;2023-11-22T03:47:40;7.80;;;6.37;;
50012;SDS011;35901;48.694;9.476;2023-11-22T03:50:06;7.13;;;6.10;;
50012;SDS011;35901;48.694;9.476;2023-11-22T03:52:32;6.63;;;5.90;;
50012;SDS011;35901;48.694;9.476;2023-11-22T03:54:57;7.43;;;5.50;;
50012;SDS011;35901;48.694;9.476;2023-11-22T03:57:23;7.10;;;6.40;;
50012;SDS011;35901;48.694;9.476;2023-11-22T03:59:49;7.63;;;6.23;;
50012;SDS011;35901;48.694;9.476;2023-11-22T04:02:14;6.47;;;5.70;;
50012;SDS011;35901;48.694;9.476;2023-11-22T04:04:41;7.37;;;6.40;;
50012;SDS011;35901;48.694;9.476;2023-11-22T04:07:07;7.50;;;6.57;;
50012;SDS011;35901;48.694;9.476;2023-11-22T04:09:33;7.20;;;6.50;;
50012;SDS011;35901;48.694;9.476;2023-11-22T04:11:59;7.60;;;6.27;;
50012;SDS011;35901;48.694;9.476;2023-11-22T04:14:24;7.33;;;6.20;;
50012;SDS011;35901;48.694;9.476;2023-11-22T04:16:52;7.67;;;6.30;;
50012;SDS011;35901;48.694;9.476;2023-11-22T04:19:18;6.73;;;6.03;;
50012;SDS011;35901;48.694;9.476;2023-11-22T04:21:43;8.20;;;6.53;;
50012;SDS011;35901;48.694;9.476;2023-11-22T04:24:09;6.97;;;6.20;;
50012;SDS011;35901;48.694;9.476;2023-11-22T04:26:37;6.30;;;5.70;;
50012;SDS011;35901;48.694;9.476;2023-11-22T04:29:03;6.60;;;5.90;;
50012;SDS011;35901;48.694;9.476;2023-11-22T04:31:29;7.17;;;6.33;;
50012;SDS011;35901;48.694;9.476;2023-11-22T04:33:55;8.00;;;6.03;;
50012;SDS011;35901;48.694;9.476;2023-11-22T04:36:22;6.90;;;5.63;;
50012;SDS011;35901;48.694;9.476;2023-11-22T04:38:48;6.27;;;5.63;;
50012;SDS011;35901;48.694;9.476;2023-11-22T04:41:15;5.90;;;5.30;;
50012;SDS011;35901;48.694;9.476;2023-11-22T04:43:40;6.87;;;5.90;;
50012;SDS011;35901;48.694;9.476;2023-11-22T04:46:09;7.73;;;5.77;;
50012;SDS011;35901;48.694;9.476;2023-11-22T04:48:35;6.20;;;4.93;;
50012;SDS011;35901;48.694;9.476;2023-11-22T04:51:02;6.10;;;5.50;;
50012;SDS011;35901;48.694;9.476;2023-11-22T04:53:27;6.60;;;5.57;;
50012;SDS011;35901;48.694;9.476;2023-11-22T04:55:53;6.53;;;5.73;;
50012;SDS011;35901;48.694;9.476;2023-11-22T04:58:19;7.37;;;5.40;;
50012;SDS011;35901;48.694;9.476;2023-11-22T05:00:44;6.57;;;5.83;;
50012;SDS011;35901;48.694;9.476;2023-11-22T05:03:10;6.37;;;5.67;;
50012;SDS011;35901;48.694;9.476;2023-11-22T05:05:36;6.50;;;5.80;;
50012;SDS011;35901;48.694;9.476;2023-11-22T05:08:01;6.40;;;5.30;;
50012;SDS011;35901;48.694;9.476;2023-11-22T05:10:27;6.37;;;5.73;;
50012;SDS011;35901;48.694;9.476;2023-11-22T05:12:53;5.90;;;5.30;;
50012;SDS011;35901;48.694;9.476;2023-11-22T05:15:20;6.53;;;5.70;;
50012;SDS011;35901;48.694;9.476;2023-11-22T05:17:46;6.50;;;5.50;;
50012;SDS011;35901;48.694;9.476;2023-11-22T05:20:11;6.80;;;6.10;;
50012;SDS011;35901;48.694;9.476;2023-11-22T05:22:37;7.53;;;5.80;;
50012;SDS011;35901;48.694;9.476;2023-11-22T05:25:03;8.70;;;5.90;;
50012;SDS011;35901;48.694;9.476;2023-11-22T05:27:29;5.63;;;5.07;;
50012;SDS011;35901;48.694;9.476;2023-11-22T05:29:56;6.83;;;6.13;;
50012;SDS011;35901;48.694;9.476;2023-11-22T05:32:22;8.50;;;5.43;;
50012;SDS011;35901;48.694;9.476;2023-11-22T05:34:47;6.27;;;5.63;;
50012;SDS011;35901;48.694;9.476;2023-11-22T05:37:13;5.20;;;4.70;;
50012;SDS011;35901;48.694;9.476;2023-11-22T05:39:39;5.90;;;5.27;;
50012;SDS011;35901;48.694;9.476;2023-11-22T05:42:04;5.87;;;5.27;;
50012;SDS011;35901;48.694;9.476;2023-11-22T05:44:30;5.63;;;5.00;;
50012;SDS011;35901;48.694;9.476;2023-11-22T05:46:55;5.90;;;5.30;;
50012;SDS011;35901;48.694;9.476;2023-11-22T05:49:22;7.80;;;5.57;;
50012;SDS011;35901;48.694;9.476;2023-11-22T05:51:47;5.83;;;5.23;;
50012;SDS011;35901;48.694;9.476;2023-11-22T05:54:13;5.30;;;4.80;;
50012;SDS011;35901;48.694;9.476;2023-11-22T05:56:41;6.20;;;5.53;;
50012;SDS011;35901;48.694;9.476;2023-11-22T05:59:07;6.07;;;5.20;;
50012;SDS011;35901;48.694;9.476;2023-11-22T06:01:33;6.30;;;5.70;;
50012;SDS011;35901;48.694;9.476;2023-11-22T06:03:59;6.90;;;6.20;;
50012;SDS011;35901;48.694;9.476;2023-11-22T06:06:24;6.43;;;5.63;;
50012;SDS011;35901;48.694;9.476;2023-11-22T06:08:50;6.40;;;5.57;;
50012;SDS011;35901;48.694;9.476;2023-11-22T06:11:16;7.53;;;5.60;;
50012;SDS011;35901;48.694;9.476;2023-11-22T06:13:41;5.20;;;4.63;;
50012;SDS011;35901;48.694;9.476;2023-11-22T06:16:12;6.50;;;5.10;;
50012;SDS011;35901;48.694;9.476;2023-11-22T06:18:38;5.67;;;5.10;;
50012;SDS011;35901;48.694;9.476;2023-11-22T06:21:08;5.80;;;5.20;;
50012;SDS011;35901;48.694;9.476;2023-11-22T06:23:35;6.67;;;5.97;;
50012;SDS011;35901;48.694;9.476;2023-11-22T06:26:01;11.50;;;7.23;;
50012;SDS011;35901;48.694;9.476;2023-11-22T06:28:27;7.77;;;5.70;;
50012;SDS011;35901;48.694;9.476;2023-11-22T06:30:53;6.73;;;5.70;;
50012;SDS011;35901;48.694;9.476;2023-11-22T06:33:19;6.67;;;5.17;;
50012;SDS011;35901;48.694;9.476;2023-11-22T06:35:45;6.70;;;5.20;;
50012;SDS011;35901;48.694;9.476;2023-11-22T06:38:10;6.17;;;5.53;;
50012;SDS011;35901;48.694;9.476;2023-11-22T06:40:36;6.03;;;5.03;;
50012;SDS011;35901;48.694;9.476;2023-11-22T06:43:02;7.47;;;5.90;;
50012;SDS011;35901;48.694;9.476;2023-11-22T06:45:29;7.07;;;5.30;;
50012;SDS011;35901;48.694;9.476;2023-11-22T06:47:56;5.80;;;5.17;;
50012;SDS011;35901;48.694;9.476;2023-11-22T06:50:22;5.43;;;4.90;;
50012;SDS011;35901;48.694;9.476;2023-11-22T06:52:47;5.90;;;5.33;;
50012;SDS011;35901;48.694;9.476;2023-11-22T06:55:15;8.00;;;5.40;;
50012;SDS011;35901;48.694;9.476;2023-11-22T06:57:40;6.00;;;4.73;;
50012;SDS011;35901;48.694;9.476;2023-11-22T07:00:06;5.57;;;4.97;;
50012;SDS011;35901;48.694;9.476;2023-11-22T07:02:34;7.50;;;5.07;;
50012;SDS011;35901;48.694;9.476;2023-11-22T07:05:03;7.47;;;6.47;;
50012;SDS011;35901;48.694;9.476;2023-11-22T07:07:34;6.17;;;5.23;;
50012;SDS011;35901;48.694;9.476;2023-11-22T07:10:00;5.57;;;5.07;;
50012;SDS011;35901;48.694;9.476;2023-11-22T07:12:25;5.17;;;4.67;;
50012;SDS011;35901;48.694;9.476;2023-11-22T07:14:51;6.57;;;5.27;;
50012;SDS011;35901;48.694;9.476;2023-11-22T07:17:17;6.00;;;5.40;;
50012;SDS011;35901;48.694;9.476;2023-11-22T07:19:43;5.77;;;5.00;;
50012;SDS011;35901;48.694;9.476;2023-11-22T07:22:15;7.07;;;5.60;;
50012;SDS011;35901;48.694;9.476;2023-11-22T07:24:41;5.93;;;5.10;;
50012;SDS011;35901;48.694;9.476;2023-11-22T07:27:09;6.97;;;5.30;;
50012;SDS011;35901;48.694;9.476;2023-11-22T07:29:41;6.33;;;5.40;;
50012;SDS011;35901;48.694;9.476;2023-11-22T07:32:08;5.93;;;5.17;;
50012;SDS011;35901;48.694;9.476;2023-11-22T07:34:37;5.80;;;5.17;;
50012;SDS011;35901;48.694;9.476;2023-11-22T07:37:05;6.13;;;5.10;;
50012;SDS011;35901;48.694;9.476;2023-11-22T07:39:34;5.67;;;5.07;;
50012;SDS011;35901;48.694;9.476;2023-11-22T07:42:01;6.00;;;5.37;;
50012;SDS011;35901;48.694;9.476;2023-11-22T07:44:27;5.70;;;5.10;;
50012;SDS011;35901;48.694;9.476;2023-11-22T07:46:53;5.17;;;4.67;;
50012;SDS011;35901;48.694;9.476;2023-11-22T07:49:19;5.30;;;4.80;;
50012;SDS011;35901;48.694;9.476;2023-11-22T07:51:46;5.70;;;5.03;;
50012;SDS011;35901;48.694;9.476;2023-11-22T07:54:12;6.00;;;5.27;;
50012;SDS011;35901;48.694;9.476;2023-11-22T07:56:41;5.03;;;4.50;;
50012;SDS011;35901;48.694;9.476;2023-11-22T07:59:12;5.30;;;4.80;;
50012;SDS011;35901;48.694;9.476;2023-11-22T08:01:37;5.00;;;4.50;;
50012;SDS011;35901;48.694;9.476;2023-11-22T08:04:03;6.43;;;5.37;;
50012;SDS011;35901;48.694;9.476;2023-11-22T08:06:31;6.37;;;4.80;;
50012;SDS011;35901;48.694;9.476;2023-11-22T08:08:57;9.60;;;5.10;;
50012;SDS011;35901;48.694;9.476;2023-11-22T08:11:26;5.97;;;4.80;;
50012;SDS011;35901;48.694;9.476;2023-11-22T08:13:52;5.87;;;4.83;;
50012;SDS011;35901;48.694;9.476;2023-11-22T08:16:23;5.60;;;4.57;;
50012;SDS011;35901;48.694;9.476;2023-11-22T08:18:49;5.30;;;4.80;;
50012;SDS011;35901;48.694;9.476;2023-11-22T08:21:17;6.37;;;5.13;;
50012;SDS011;35901;48.694;9.476;2023-11-22T08:23:43;5.77;;;4.60;;
50012;SDS011;35901;48.694;9.476;2023-11-22T08:26:12;5.20;;;4.70;;
50012;SDS011;35901;48.694;9.476;2023-11-22T08:28:39;5.53;;;4.50;;
50012;SDS011;35901;48.694;9.476;2023-11-22T08:31:04;4.80;;;4.37;;
50012;SDS011;35901;48.694;9.476;2023-11-22T08:33:34;4.23;;;3.83;;
50012;SDS011;35901;48.694;9.476;2023-11-22T08:36:00;4.63;;;4.23;;
50012;SDS011;35901;48.694;9.476;2023-11-22T08:38:27;5.03;;;4.03;;
50012;SDS011;35901;48.694;9.476;2023-11-22T08:40:53;5.03;;;4.00;;
50012;SDS011;35901;48.694;9.476;2023-11-22T08:43:20;3.90;;;3.50;;
50012;SDS011;35901;48.694;9.476;2023-11-22T08:45:51;4.87;;;3.83;;
50012;SDS011;35901;48.694;9.476;2023-11-22T08:48:17;3.90;;;3.60;;
50012;SDS011;35901;48.694;9.476;2023-11-22T08:50:42;4.20;;;3.80;;
50012;SDS011;35901;48.694;9.476;2023-11-22T08:53:09;4.83;;;3.80;;
50012;SDS011;35901;48.694;9.476;2023-11-22T08:55:35;5.63;;;4.30;;
50012;SDS011;35901;48.694;9.476;2023-11-22T08:58:01;3.97;;;3.67;;
50012;SDS011;35901;48.694;9.476;2023-11-22T09:00:27;4.37;;;3.93;;
50012;SDS011;35901;48.694;9.476;2023-11-22T09:02:56;5.10;;;3.97;;
50012;SDS011;35901;48.694;9.476;2023-11-22T09:05:21;4.90;;;4.33;;
50012;SDS011;35901;48.694;9.476;2023-11-22T09:07:47;4.70;;;4.30;;
50012;SDS011;35901;48.694;9.476;2023-11-22T09:10:13;6.67;;;4.50;;
50012;SDS011;35901;48.694;9.476;2023-11-22T09:12:40;4.90;;;4.50;;
50012;SDS011;35901;48.694;9.476;2023-11-22T09:15:07;5.00;;;4.50;;
50012;SDS011;35901;48.694;9.476;2023-11-22T09:17:37;5.17;;;4.50;;
50012;SDS011;35901;48.694;9.476;2023-11-22T09:20:17;4.33;;;3.93;;
50012;SDS011;35901;48.694;9.476;2023-11-22T09:22:49;4.40;;;4.00;;
50012;SDS011;35901;48.694;9.476;2023-11-22T09:25:23;4.90;;;4.40;;
50012;SDS011;35901;48.694;9.476;2023-11-22T09:27:51;4.70;;;4.20;;
50012;SDS011;35901;48.694;9.476;2023-11-22T09:30:24;5.00;;;4.47;;
50012;SDS011;35901;48.694;9.476;2023-11-22T09:33:11;5.57;;;4.97;;
50012;SDS011;35901;48.694;9.476;2023-11-22T09:35:42;4.60;;;4.20;;
50012;SDS011;35901;48.694;9.476;2023-11-22T09:38:10;4.83;;;4.43;;
50012;SDS011;35901;48.694;9.476;2023-11-22T09:40:42;5.57;;;5.07;;
50012;SDS011;35901;48.694;9.476;2023-11-22T09:43:10;5.73;;;4.57;;
50012;SDS011;35901;48.694;9.476;2023-11-22T09:45:36;6.23;;;5.63;;
50012;SDS011;35901;48.694;9.476;2023-11-22T09:48:04;5.83;;;5.30;;
50012;SDS011;35901;48.694;9.476;2023-11-22T09:50:40;5.83;;;5.20;;
50012;SDS011;35901;48.694;9.476;2023-11-22T09:53:33;7.80;;;6.23;;
50012;SDS011;35901;48.694;9.476;2023-11-22T09:56:02;6.50;;;5.90;;
50012;SDS011;35901;48.694;9.476;2023-11-22T09:58:29;7.47;;;5.77;;
50012;SDS011;35901;48.694;9.476;2023-11-22T10:00:58;7.57;;;6.67;;
50012;SDS011;35901;48.694;9.476;2023-11-22T10:03:29;7.53;;;5.93;;
50012;SDS011;35901;48.694;9.476;2023-11-22T10:05:58;6.83;;;6.10;;
50012;SDS011;35901;48.694;9.476;2023-11-22T10:08:27;7.73;;;6.47;;
50012;SDS011;35901;48.694;9.476;2023-11-22T10:10:55;8.43;;;6.07;;
50012;SDS011;35901;48.694;9.476;2023-11-22T10:13:21;8.67;;;6.90;;
50012;SDS011;35901;48.694;9.476;2023-11-22T10:15:48;7.60;;;6.77;;
50012;SDS011;35901;48.694;9.476;2023-11-22T10:18:18;7.80;;;7.00;;
50012;SDS011;35901;48.694;9.476;2023-11-22T10:20:46;7.57;;;6.87;;
50012;SDS011;35901;48.694;9.476;2023-11-22T10:23:14;9.20;;;6.83;;
50012;SDS011;35901;48.694;9.476;2023-11-22T10:25:58;7.27;;;6.00;;
50012;SDS011;35901;48.694;9.476;2023-11-22T10:28:25;8.40;;;6.40;;
50012;SDS011;35901;48.694;9.476;2023-11-22T10:30:53;8.30;;;6.77;;
50012;SDS011;35901;48.694;9.476;2023-11-22T10:33:18;7.43;;;5.97;;
50012;SDS011;35901;48.694;9.476;2023-11-22T10:35:51;7.77;;;6.50;;
50012;SDS011;35901;48.694;9.476;2023-11-22T10:38:18;6.97;;;6.10;;
50012;SDS011;35901;48.694;9.476;2023-11-22T10:40:45;7.23;;;6.53;;
50012;SDS011;35901;48.694;9.476;2023-11-22T10:43:13;7.10;;;6.40;;
50012;SDS011;35901;48.694;9.476;2023-11-22T10:45:39;7.87;;;7.07;;
50012;SDS011;35901;48.694;9.476;2023-11-22T10:48:09;6.63;;;6.03;;
50012;SDS011;35901;48.694;9.476;2023-11-22T10:50:36;7.13;;;6.43;;
50012;SDS011;35901;48.694;9.476;2023-11-22T10:53:03;8.07;;;6.73;;
50012;SDS011;35901;48.694;9.476;2023-11-22T10:55:32;6.73;;;6.13;;
50012;SDS011;35901;48.694;9.476;2023-11-22T10:58:01;6.77;;;6.07;;
50012;SDS011;35901;48.694;9.476;2023-11-22T11:00:27;7.20;;;5.73;;
50012;SDS011;35901;48.694;9.476;2023-11-22T11:03:31;7.33;;;6.20;;
50012;SDS011;35901;48.694;9.476;2023-11-22T11:05:54;6.77;;;6.07;;
50012;SDS011;35901;48.694;9.476;2023-11-22T11:08:29;6.90;;;5.90;;
50012;SDS011;35901;48.694;9.476;2023-11-22T11:10:57;7.47;;;6.43;;
50012;SDS011;35901;48.694;9.476;2023-11-22T11:13:23;6.90;;;6.20;;
50012;SDS011;35901;48.694;9.476;2023-11-22T11:15:50;6.47;;;5.47;;
50012;SDS011;35901;48.694;9.476;2023-11-22T11:18:17;7.43;;;5.80;;
50012;SDS011;35901;48.694;9.476;2023-11-22T11:23:17;6.47;;;5.40;;
50012;SDS011;35901;48.694;9.476;2023-11-22T11:25:47;6.27;;;5.63;;
50012;SDS011;35901;48.694;9.476;2023-11-22T11:28:17;7.27;;;6.10;;
50012;SDS011;35901;48.694;9.476;2023-11-22T11:30:43;5.70;;;4.73;;
50012;SDS011;35901;48.694;9.476;2023-11-22T11:33:14;6.30;;;5.70;;
50012;SDS011;35901;48.694;9.476;2023-11-22T11:35:46;6.27;;;5.67;;
50012;SDS011;35901;48.694;9.476;2023-11-22T11:38:16;6.37;;;5.60;;
50012;SDS011;35901;48.694;9.476;2023-11-22T11:40:48;6.43;;;5.73;;
50012;SDS011;35901;48.694;9.476;2023-11-22T11:43:15;6.07;;;5.47;;
50012;SDS011;35901;48.694;9.476;2023-11-22T11:45:46;6.47;;;5.43;;
50012;SDS011;35901;48.694;9.476;2023-11-22T11:48:15;5.90;;;5.33;;
50012;SDS011;35901;48.694;9.476;2023-11-22T11:50:42;5.30;;;4.80;;
50012;SDS011;35901;48.694;9.476;2023-11-22T11:53:11;5.20;;;4.70;;
50012;SDS011;35901;48.694;9.476;2023-11-22T11:55:37;5.67;;;5.07;;
50012;SDS011;35901;48.694;9.476;2023-11-22T11:58:06;5.20;;;4.70;;
50012;SDS011;35901;48.694;9.476;2023-11-22T12:00:34;5.23;;;4.77;;
50012;SDS011;35901;48.694;9.476;2023-11-22T12:03:07;4.90;;;4.17;;
50012;SDS011;35901;48.694;9.476;2023-11-22T12:05:38;4.97;;;4.50;;
50012;SDS011;35901;48.694;9.476;2023-11-22T12:08:04;5.40;;;4.90;;
50012;SDS011;35901;48.694;9.476;2023-11-22T12:10:30;5.07;;;4.57;;
50012;SDS011;35901;48.694;9.476;2023-11-22T12:12:57;4.60;;;4.10;;
50012;SDS011;35901;48.694;9.476;2023-11-22T12:15:24;4.50;;;4.10;;
50012;SDS011;35901;48.694;9.476;2023-11-22T12:17:50;4.70;;;4.30;;
50012;SDS011;35901;48.694;9.476;2023-11-22T12:20:17;4.10;;;3.80;;
50012;SDS011;35901;48.694;9.476;2023-11-22T12:22:46;5.53;;;3.87;;
50012;SDS011;35901;48.694;9.476;2023-11-22T12:25:12;4.57;;;4.10;;
50012;SDS011;35901;48.694;9.476;2023-11-22T12:27:39;4.50;;;4.07;;
50012;SDS011;35901;48.694;9.476;2023-11-22T12:30:06;4.87;;;3.70;;
50012;SDS011;35901;48.694;9.476;2023-11-22T12:32:32;4.47;;;3.70;;
50012;SDS011;35901;48.694;9.476;2023-11-22T12:34:58;8.13;;;4.60;;
50012;SDS011;35901;48.694;9.476;2023-11-22T12:37:24;4.37;;;3.97;;
50012;SDS011;35901;48.694;9.476;2023-11-22T12:39:51;4.30;;;3.90;;
50012;SDS011;35901;48.694;9.476;2023-11-22T12:42:18;3.90;;;3.50;;
50012;SDS011;35901;48.694;9.476;2023-11-22T12:44:59;4.10;;;3.70;;
50012;SDS011;35901;48.694;9.476;2023-11-22T12:47:34;4.10;;;3.70;;
50012;SDS011;35901;48.694;9.476;2023-11-22T12:50:02;4.97;;;3.70;;
50012;SDS011;35901;48.694;9.476;2023-11-22T12:52:33;4.47;;;4.07;;
50012;SDS011;35901;48.694;9.476;2023-11-22T12:54:59;4.47;;;3.90;;
50012;SDS011;35901;48.694;9.476;2023-11-22T12:57:25;4.80;;;4.20;;
50012;SDS011;35901;48.694;9.476;2023-11-22T12:59:50;4.60;;;3.97;;
50012;SDS011;35901;48.694;9.476;2023-11-22T13:02:16;4.07;;;3.70;;
50012;SDS011;35901;48.694;9.476;2023-11-22T13:04:42;4.20;;;3.70;;
50012;SDS011;35901;48.694;9.476;2023-11-22T13:07:11;5.80;;;4.20;;
50012;SDS011;35901;48.694;9.476;2023-11-22T13:09:36;4.20;;;3.80;;
50012;SDS011;35901;48.694;9.476;2023-11-22T13:12:03;5.30;;;4.30;;
50012;SDS011;35901;48.694;9.476;2023-11-22T13:14:29;4.60;;;3.90;;
50012;SDS011;35901;48.694;9.476;2023-11-22T13:17:00;4.40;;;4.00;;
50012;SDS011;35901;48.694;9.476;2023-11-22T13:19:26;4.20;;;3.80;;
50012;SDS011;35901;48.694;9.476;2023-11-22T13:21:52;4.20;;;3.80;;
50012;SDS011;35901;48.694;9.476;2023-11-22T13:24:18;4.67;;;4.17;;
50012;SDS011;35901;48.694;9.476;2023-11-22T13:26:45;4.70;;;4.30;;
50012;SDS011;35901;48.694;9.476;2023-11-22T13:29:11;4.40;;;4.00;;
50012;SDS011;35901;48.694;9.476;2023-11-22T13:31:36;4.13;;;3.73;;
50012;SDS011;35901;48.694;9.476;2023-11-22T13:34:02;4.30;;;3.90;;
50012;SDS011;35901;48.694;9.476;2023-11-22T13:36:28;4.97;;;4.30;;
50012;SDS011;35901;48.694;9.476;2023-11-22T13:38:53;4.43;;;3.97;;
50012;SDS011;35901;48.694;9.476;2023-11-22T13:41:20;5.03;;;4.40;;
50012;SDS011;35901;48.694;9.476;2023-11-22T13:43:46;4.53;;;4.13;;
50012;SDS011;35901;48.694;9.476;2023-11-22T13:46:13;4.50;;;4.10;;
50012;SDS011;35901;48.694;9.476;2023-11-22T13:48:40;4.27;;;3.87;;
50012;SDS011;35901;48.694;9.476;2023-11-22T13:51:06;4.80;;;4.30;;
50012;SDS011;35901;48.694;9.476;2023-11-22T13:53:33;4.97;;;4.47;;
50012;SDS011;35901;48.694;9.476;2023-11-22T13:56:01;5.40;;;4.90;;
50012;SDS011;35901;48.694;9.476;2023-11-22T13:58:33;5.17;;;4.50;;
50012;SDS011;35901;48.694;9.476;2023-11-22T14:00:59;5.03;;;4.53;;
50012;SDS011;35901;48.694;9.476;2023-11-22T14:03:26;5.27;;;4.77;;
50012;SDS011;35901;48.694;9.476;2023-11-22T14:05:51;5.50;;;5.00;;
50012;SDS011;35901;48.694;9.476;2023-11-22T14:08:17;5.10;;;4.63;;
50012;SDS011;35901;48.694;9.476;2023-11-22T14:10:44;4.47;;;4.07;;
50012;SDS011;35901;48.694;9.476;2023-11-22T14:13:10;5.07;;;4.57;;
50012;SDS011;35901;48.694;9.476;2023-11-22T14:15:37;5.07;;;4.57;;
50012;SDS011;35901;48.694;9.476;2023-11-22T14:18:03;6.07;;;4.90;;
50012;SDS011;35901;48.694;9.476;2023-11-22T14:20:30;4.83;;;4.27;;
50012;SDS011;35901;48.694;9.476;2023-11-22T14:22:55;6.60;;;4.87;;
50012;SDS011;35901;48.694;9.476;2023-11-22T14:25:21;5.20;;;4.70;;
50012;SDS011;35901;48.694;9.476;2023-11-22T14:27:47;5.10;;;4.60;;
50012;SDS011;35901;48.694;9.476;2023-11-22T14:30:17;6.27;;;5.63;;
50012;SDS011;35901;48.694;9.476;2023-11-22T14:32:46;5.67;;;5.17;;
50012;SDS011;35901;48.694;9.476;2023-11-22T14:35:11;6.00;;;5.40;;
50012;SDS011;35901;48.694;9.476;2023-11-22T14:37:37;5.53;;;5.03;;
50012;SDS011;35901;48.694;9.476;2023-11-22T14:40:05;5.63;;;5.13;;
50012;SDS011;35901;48.694;9.476;2023-11-22T14:42:39;5.03;;;4.53;;
50012;SDS011;35901;48.694;9.476;2023-11-22T14:45:11;4.87;;;4.43;;
50012;SDS011;35901;48.694;9.476;2023-11-22T14:47:38;6.33;;;5.20;;